sensor_id;sensor_type;location;lat;lon;timestamp;temperature;humidity
45983;DHT22;31711;47.158;7.346;2022-12-29T00:02:26;3.00;99.90
45983;DHT22;31711;47.158;7.346;2022-12-29T00:04:52;3.10;99.90
45983;DHT22;31711;47.158;7.346;2022-12-29T00:07:18;3.00;99.90
45983;DHT22;31711;47.158;7.346;2022-12-29T00:09:44;3.00;99.90
45983;DHT22;31711;47.158;7.346;2022-12-29T00:12:10;3.00;99.90
45983;DHT22;31711;47.158;7.346;2022-12-29T00:14:36;3.10;99.90
45983;DHT22;31711;47.158;7.346;2022-12-29T00:17:21;3.10;99.90
45983;DHT22;31711;47.158;7.346;2022-12-29T00:19:46;3.20;99.90
45983;DHT22;31711;47.158;7.346;2022-12-29T00:22:31;3.20;99.90
45983;DHT22;31711;47.158;7.346;2022-12-29T00:25:16;3.30;99.90
45983;DHT22;31711;47.158;7.346;2022-12-29T00:28:00;3.40;99.90
45983;DHT22;31711;47.158;7.346;2022-12-29T00:30:45;3.50;99.90
45983;DHT22;31711;47.158;7.346;2022-12-29T00:33:32;3.50;99.90
45983;DHT22;31711;47.158;7.346;2022-12-29T00:36:29;3.60;99.90
45983;DHT22;31711;47.158;7.346;2022-12-29T00:39:09;3.60;99.90
45983;DHT22;31711;47.158;7.346;2022-12-29T00:41:54;3.70;99.90
45983;DHT22;31711;47.158;7.346;2022-12-29T00:44:39;3.70;99.90
45983;DHT22;31711;47.158;7.346;2022-12-29T00:47:05;3.70;99.90
45983;DHT22;31711;47.158;7.346;2022-12-29T00:49:31;3.70;99.90
45983;DHT22;31711;47.158;7.346;2022-12-29T00:52:06;3.80;99.90
45983;DHT22;31711;47.158;7.346;2022-12-29T00:54:34;3.90;99.90
45983;DHT22;31711;47.158;7.346;2022-12-29T00:57:02;4.00;99.90
45983;DHT22;31711;47.158;7.346;2022-12-29T00:59:28;4.20;99.90
45983;DHT22;31711;47.158;7.346;2022-12-29T01:01:54;4.30;99.90
45983;DHT22;31711;47.158;7.346;2022-12-29T01:04:23;4.20;99.90
45983;DHT22;31711;47.158;7.346;2022-12-29T01:06:49;4.40;99.90
45983;DHT22;31711;47.158;7.346;2022-12-29T01:09:17;4.40;99.90
45983;DHT22;31711;47.158;7.346;2022-12-29T01:12:02;4.40;99.90
45983;DHT22;31711;47.158;7.346;2022-12-29T01:14:28;4.40;99.90
45983;DHT22;31711;47.158;7.346;2022-12-29T01:16:55;4.40;99.90
45983;DHT22;31711;47.158;7.346;2022-12-29T01:19:21;4.40;99.90
45983;DHT22;31711;47.158;7.346;2022-12-29T01:21:48;4.50;99.90
45983;DHT22;31711;47.158;7.346;2022-12-29T01:24:15;4.50;99.90
45983;DHT22;31711;47.158;7.346;2022-12-29T01:26:42;4.50;99.90
45983;DHT22;31711;47.158;7.346;2022-12-29T01:29:08;4.60;99.90
45983;DHT22;31711;47.158;7.346;2022-12-29T01:31:35;4.60;99.90
45983;DHT22;31711;47.158;7.346;2022-12-29T01:34:01;4.60;99.90
45983;DHT22;31711;47.158;7.346;2022-12-29T01:36:27;4.60;99.90
45983;DHT22;31711;47.158;7.346;2022-12-29T01:38:53;4.60;99.90
45983;DHT22;31711;47.158;7.346;2022-12-29T01:41:19;4.60;99.90
45983;DHT22;31711;47.158;7.346;2022-12-29T01:43:53;4.70;99.90
45983;DHT22;31711;47.158;7.346;2022-12-29T01:46:28;4.70;99.90
45983;DHT22;31711;47.158;7.346;2022-12-29T01:49:13;4.70;99.90
45983;DHT22;31711;47.158;7.346;2022-12-29T01:51:48;4.70;99.90
45983;DHT22;31711;47.158;7.346;2022-12-29T01:57:02;4.70;99.90
45983;DHT22;31711;47.158;7.346;2022-12-29T01:59:35;4.80;99.90
45983;DHT22;31711;47.158;7.346;2022-12-29T02:02:05;4.90;99.90
45983;DHT22;31711;47.158;7.346;2022-12-29T02:04:32;5.00;99.90
45983;DHT22;31711;47.158;7.346;2022-12-29T02:07:14;5.10;99.90
45983;DHT22;31711;47.158;7.346;2022-12-29T02:09:42;5.10;99.90
45983;DHT22;31711;47.158;7.346;2022-12-29T02:12:10;5.40;99.90
45983;DHT22;31711;47.158;7.346;2022-12-29T02:14:36;5.50;99.90
45983;DHT22;31711;47.158;7.346;2022-12-29T02:48:20;5.70;99.90
45983;DHT22;31711;47.158;7.346;2022-12-29T02:50:37;5.70;99.90
45983;DHT22;31711;47.158;7.346;2022-12-29T02:53:15;5.80;99.90
45983;DHT22;31711;47.158;7.346;2022-12-29T02:55:50;5.80;99.90
45983;DHT22;31711;47.158;7.346;2022-12-29T02:58:22;6.00;99.90
45983;DHT22;31711;47.158;7.346;2022-12-29T03:03:52;6.00;99.90
45983;DHT22;31711;47.158;7.346;2022-12-29T03:12:03;6.00;99.90
45983;DHT22;31711;47.158;7.346;2022-12-29T03:15:02;6.10;99.90
45983;DHT22;31711;47.158;7.346;2022-12-29T03:18:30;6.20;99.90
45983;DHT22;31711;47.158;7.346;2022-12-29T03:21:14;6.20;99.90
45983;DHT22;31711;47.158;7.346;2022-12-29T03:23:42;6.30;99.90
45983;DHT22;31711;47.158;7.346;2022-12-29T03:26:11;6.40;99.90
45983;DHT22;31711;47.158;7.346;2022-12-29T03:28:43;6.40;99.90
45983;DHT22;31711;47.158;7.346;2022-12-29T03:31:13;6.60;99.90
45983;DHT22;31711;47.158;7.346;2022-12-29T03:33:41;7.00;99.90
45983;DHT22;31711;47.158;7.346;2022-12-29T03:36:27;7.20;99.90
45983;DHT22;31711;47.158;7.346;2022-12-29T03:39:02;7.40;99.90
45983;DHT22;31711;47.158;7.346;2022-12-29T03:41:31;7.50;99.90
45983;DHT22;31711;47.158;7.346;2022-12-29T03:43:58;7.60;99.90
45983;DHT22;31711;47.158;7.346;2022-12-29T03:46:24;7.80;99.90
45983;DHT22;31711;47.158;7.346;2022-12-29T03:48:50;7.80;99.90
45983;DHT22;31711;47.158;7.346;2022-12-29T03:51:16;8.00;99.90
45983;DHT22;31711;47.158;7.346;2022-12-29T03:53:42;8.30;99.90
45983;DHT22;31711;47.158;7.346;2022-12-29T03:56:08;8.20;99.90
45983;DHT22;31711;47.158;7.346;2022-12-29T03:58:34;8.20;99.90
45983;DHT22;31711;47.158;7.346;2022-12-29T04:01:00;8.30;99.90
45983;DHT22;31711;47.158;7.346;2022-12-29T04:03:26;8.30;99.90
45983;DHT22;31711;47.158;7.346;2022-12-29T04:05:52;8.30;99.90
45983;DHT22;31711;47.158;7.346;2022-12-29T04:08:18;8.40;99.90
45983;DHT22;31711;47.158;7.346;2022-12-29T04:10:44;8.60;99.90
45983;DHT22;31711;47.158;7.346;2022-12-29T04:13:10;8.50;99.90
45983;DHT22;31711;47.158;7.346;2022-12-29T04:15:36;8.40;99.90
45983;DHT22;31711;47.158;7.346;2022-12-29T04:18:02;8.50;99.90
45983;DHT22;31711;47.158;7.346;2022-12-29T04:20:28;8.50;99.90
45983;DHT22;31711;47.158;7.346;2022-12-29T04:23:12;8.50;99.90
45983;DHT22;31711;47.158;7.346;2022-12-29T04:25:38;8.50;99.90
45983;DHT22;31711;47.158;7.346;2022-12-29T04:28:04;8.50;99.90
45983;DHT22;31711;47.158;7.346;2022-12-29T04:30:30;8.50;99.90
45983;DHT22;31711;47.158;7.346;2022-12-29T04:32:56;8.50;99.90
45983;DHT22;31711;47.158;7.346;2022-12-29T04:35:22;8.50;99.90
45983;DHT22;31711;47.158;7.346;2022-12-29T04:37:48;8.60;99.90
45983;DHT22;31711;47.158;7.346;2022-12-29T04:40:14;8.60;99.90
45983;DHT22;31711;47.158;7.346;2022-12-29T04:42:40;8.60;99.90
45983;DHT22;31711;47.158;7.346;2022-12-29T04:45:07;8.60;99.90
45983;DHT22;31711;47.158;7.346;2022-12-29T04:47:33;8.60;99.90
45983;DHT22;31711;47.158;7.346;2022-12-29T04:49:59;8.70;99.90
45983;DHT22;31711;47.158;7.346;2022-12-29T04:52:25;8.70;99.90
45983;DHT22;31711;47.158;7.346;2022-12-29T04:54:50;8.70;99.90
45983;DHT22;31711;47.158;7.346;2022-12-29T04:57:16;8.90;99.90
45983;DHT22;31711;47.158;7.346;2022-12-29T04:59:42;8.80;99.90
45983;DHT22;31711;47.158;7.346;2022-12-29T05:02:08;8.80;99.90
45983;DHT22;31711;47.158;7.346;2022-12-29T05:04:34;8.80;99.90
45983;DHT22;31711;47.158;7.346;2022-12-29T05:07:00;9.00;99.90
45983;DHT22;31711;47.158;7.346;2022-12-29T05:09:26;8.90;99.90
45983;DHT22;31711;47.158;7.346;2022-12-29T05:11:52;9.00;99.90
45983;DHT22;31711;47.158;7.346;2022-12-29T05:14:18;9.00;99.90
45983;DHT22;31711;47.158;7.346;2022-12-29T05:16:44;8.90;99.90
45983;DHT22;31711;47.158;7.346;2022-12-29T05:19:10;9.00;99.90
45983;DHT22;31711;47.158;7.346;2022-12-29T05:21:36;9.00;99.90
45983;DHT22;31711;47.158;7.346;2022-12-29T05:24:02;8.90;99.90
45983;DHT22;31711;47.158;7.346;2022-12-29T05:26:28;9.00;99.90
45983;DHT22;31711;47.158;7.346;2022-12-29T05:28:54;9.10;99.90
45983;DHT22;31711;47.158;7.346;2022-12-29T05:31:20;9.10;99.90
45983;DHT22;31711;47.158;7.346;2022-12-29T05:33:46;9.10;99.90
45983;DHT22;31711;47.158;7.346;2022-12-29T05:36:12;9.20;99.90
45983;DHT22;31711;47.158;7.346;2022-12-29T05:38:38;9.20;99.90
45983;DHT22;31711;47.158;7.346;2022-12-29T05:41:04;9.20;99.90
45983;DHT22;31711;47.158;7.346;2022-12-29T05:43:30;9.20;99.90
45983;DHT22;31711;47.158;7.346;2022-12-29T05:45:56;9.20;99.90
45983;DHT22;31711;47.158;7.346;2022-12-29T05:48:23;9.20;99.90
45983;DHT22;31711;47.158;7.346;2022-12-29T05:50:49;9.20;99.90
45983;DHT22;31711;47.158;7.346;2022-12-29T05:53:16;9.10;99.90
45983;DHT22;31711;47.158;7.346;2022-12-29T05:55:44;9.20;99.90
45983;DHT22;31711;47.158;7.346;2022-12-29T05:58:10;9.20;99.90
45983;DHT22;31711;47.158;7.346;2022-12-29T06:00:36;9.20;99.90
45983;DHT22;31711;47.158;7.346;2022-12-29T06:03:02;9.10;99.90
45983;DHT22;31711;47.158;7.346;2022-12-29T06:05:28;9.10;99.90
45983;DHT22;31711;47.158;7.346;2022-12-29T06:07:54;9.10;99.90
45983;DHT22;31711;47.158;7.346;2022-12-29T06:10:20;9.10;99.90
45983;DHT22;31711;47.158;7.346;2022-12-29T06:12:46;9.00;99.90
45983;DHT22;31711;47.158;7.346;2022-12-29T06:15:12;9.00;99.90
45983;DHT22;31711;47.158;7.346;2022-12-29T06:17:39;9.00;99.90
45983;DHT22;31711;47.158;7.346;2022-12-29T06:20:07;9.10;99.90
45983;DHT22;31711;47.158;7.346;2022-12-29T06:22:33;9.20;99.90
45983;DHT22;31711;47.158;7.346;2022-12-29T06:24:59;9.20;99.90
45983;DHT22;31711;47.158;7.346;2022-12-29T06:27:26;9.20;99.90
45983;DHT22;31711;47.158;7.346;2022-12-29T06:29:51;9.20;99.90
45983;DHT22;31711;47.158;7.346;2022-12-29T06:32:17;9.20;99.90
45983;DHT22;31711;47.158;7.346;2022-12-29T06:34:43;9.20;99.90
45983;DHT22;31711;47.158;7.346;2022-12-29T06:37:10;9.20;99.90
45983;DHT22;31711;47.158;7.346;2022-12-29T06:39:36;9.20;99.90
45983;DHT22;31711;47.158;7.346;2022-12-29T06:42:02;9.10;99.90
45983;DHT22;31711;47.158;7.346;2022-12-29T06:44:29;9.10;99.90
45983;DHT22;31711;47.158;7.346;2022-12-29T06:46:55;9.20;99.90
45983;DHT22;31711;47.158;7.346;2022-12-29T06:49:21;9.20;99.90
45983;DHT22;31711;47.158;7.346;2022-12-29T06:51:47;9.20;99.90
45983;DHT22;31711;47.158;7.346;2022-12-29T06:54:13;9.10;99.90
45983;DHT22;31711;47.158;7.346;2022-12-29T06:56:39;9.20;99.90
45983;DHT22;31711;47.158;7.346;2022-12-29T06:59:05;9.10;99.90
45983;DHT22;31711;47.158;7.346;2022-12-29T07:01:31;9.00;99.90
45983;DHT22;31711;47.158;7.346;2022-12-29T07:03:57;8.90;99.90
45983;DHT22;31711;47.158;7.346;2022-12-29T07:06:23;8.80;99.90
45983;DHT22;31711;47.158;7.346;2022-12-29T07:08:49;8.90;99.90
45983;DHT22;31711;47.158;7.346;2022-12-29T07:11:15;8.80;99.90
45983;DHT22;31711;47.158;7.346;2022-12-29T07:13:41;8.60;99.90
45983;DHT22;31711;47.158;7.346;2022-12-29T07:16:08;8.50;99.90
45983;DHT22;31711;47.158;7.346;2022-12-29T07:18:35;8.50;99.90
45983;DHT22;31711;47.158;7.346;2022-12-29T07:21:01;8.40;99.90
45983;DHT22;31711;47.158;7.346;2022-12-29T07:23:27;8.50;99.90
45983;DHT22;31711;47.158;7.346;2022-12-29T07:26:04;8.50;99.90
45983;DHT22;31711;47.158;7.346;2022-12-29T07:28:31;8.50;99.90
45983;DHT22;31711;47.158;7.346;2022-12-29T07:31:00;8.50;99.90
45983;DHT22;31711;47.158;7.346;2022-12-29T07:33:30;8.60;99.90
45983;DHT22;31711;47.158;7.346;2022-12-29T07:35:57;8.60;99.90
45983;DHT22;31711;47.158;7.346;2022-12-29T07:38:23;8.70;99.90
45983;DHT22;31711;47.158;7.346;2022-12-29T07:40:50;8.70;99.90
45983;DHT22;31711;47.158;7.346;2022-12-29T07:43:16;8.80;99.90
45983;DHT22;31711;47.158;7.346;2022-12-29T07:45:42;8.80;99.90
45983;DHT22;31711;47.158;7.346;2022-12-29T07:48:08;8.80;99.90
45983;DHT22;31711;47.158;7.346;2022-12-29T07:50:35;8.90;99.90
45983;DHT22;31711;47.158;7.346;2022-12-29T07:53:02;8.90;99.90
45983;DHT22;31711;47.158;7.346;2022-12-29T07:55:29;8.90;99.90
45983;DHT22;31711;47.158;7.346;2022-12-29T07:57:55;8.90;99.90
45983;DHT22;31711;47.158;7.346;2022-12-29T08:00:22;8.90;99.90
45983;DHT22;31711;47.158;7.346;2022-12-29T08:02:49;9.00;99.90
45983;DHT22;31711;47.158;7.346;2022-12-29T08:05:15;9.00;99.90
45983;DHT22;31711;47.158;7.346;2022-12-29T08:07:45;8.90;99.90
45983;DHT22;31711;47.158;7.346;2022-12-29T08:10:12;9.00;99.90
45983;DHT22;31711;47.158;7.346;2022-12-29T08:12:38;9.00;99.90
45983;DHT22;31711;47.158;7.346;2022-12-29T08:15:05;9.00;99.90
45983;DHT22;31711;47.158;7.346;2022-12-29T08:17:31;9.10;99.90
45983;DHT22;31711;47.158;7.346;2022-12-29T08:19:58;9.10;99.90
45983;DHT22;31711;47.158;7.346;2022-12-29T08:22:24;9.20;99.90
45983;DHT22;31711;47.158;7.346;2022-12-29T08:24:50;9.30;99.90
45983;DHT22;31711;47.158;7.346;2022-12-29T08:27:17;9.30;99.90
45983;DHT22;31711;47.158;7.346;2022-12-29T08:29:44;9.40;99.90
45983;DHT22;31711;47.158;7.346;2022-12-29T08:32:10;9.40;99.90
45983;DHT22;31711;47.158;7.346;2022-12-29T08:34:36;9.40;99.90
45983;DHT22;31711;47.158;7.346;2022-12-29T08:37:02;9.30;99.90
45983;DHT22;31711;47.158;7.346;2022-12-29T08:39:28;9.30;99.90
45983;DHT22;31711;47.158;7.346;2022-12-29T08:41:54;9.30;99.90
45983;DHT22;31711;47.158;7.346;2022-12-29T08:44:20;9.40;99.90
45983;DHT22;31711;47.158;7.346;2022-12-29T08:46:46;9.40;99.90
45983;DHT22;31711;47.158;7.346;2022-12-29T08:49:12;9.40;99.90
45983;DHT22;31711;47.158;7.346;2022-12-29T08:51:39;9.40;99.90
45983;DHT22;31711;47.158;7.346;2022-12-29T08:54:05;9.50;99.90
45983;DHT22;31711;47.158;7.346;2022-12-29T08:56:31;9.40;99.90
45983;DHT22;31711;47.158;7.346;2022-12-29T08:58:57;9.50;99.90
45983;DHT22;31711;47.158;7.346;2022-12-29T09:01:23;9.50;99.90
45983;DHT22;31711;47.158;7.346;2022-12-29T09:03:49;9.50;99.90
45983;DHT22;31711;47.158;7.346;2022-12-29T09:06:17;9.50;99.90
45983;DHT22;31711;47.158;7.346;2022-12-29T09:08:44;9.50;99.90
45983;DHT22;31711;47.158;7.346;2022-12-29T09:11:16;9.60;99.90
45983;DHT22;31711;47.158;7.346;2022-12-29T09:13:42;9.60;99.90
45983;DHT22;31711;47.158;7.346;2022-12-29T09:16:09;9.70;99.90
45983;DHT22;31711;47.158;7.346;2022-12-29T09:18:36;9.70;99.90
45983;DHT22;31711;47.158;7.346;2022-12-29T09:21:04;9.80;99.90
45983;DHT22;31711;47.158;7.346;2022-12-29T09:23:31;9.80;99.90
45983;DHT22;31711;47.158;7.346;2022-12-29T09:25:57;9.80;99.90
45983;DHT22;31711;47.158;7.346;2022-12-29T09:28:24;9.80;99.90
45983;DHT22;31711;47.158;7.346;2022-12-29T09:30:50;9.80;99.90
45983;DHT22;31711;47.158;7.346;2022-12-29T09:33:17;9.80;99.90
45983;DHT22;31711;47.158;7.346;2022-12-29T09:35:44;9.80;99.90
45983;DHT22;31711;47.158;7.346;2022-12-29T09:38:11;9.80;99.90
45983;DHT22;31711;47.158;7.346;2022-12-29T09:40:38;9.70;99.90
45983;DHT22;31711;47.158;7.346;2022-12-29T09:45:43;9.80;99.90
45983;DHT22;31711;47.158;7.346;2022-12-29T09:48:29;9.80;99.90
45983;DHT22;31711;47.158;7.346;2022-12-29T09:51:00;9.80;99.90
45983;DHT22;31711;47.158;7.346;2022-12-29T09:53:34;9.80;99.90
45983;DHT22;31711;47.158;7.346;2022-12-29T09:56:05;9.90;99.90
45983;DHT22;31711;47.158;7.346;2022-12-29T09:58:39;10.00;99.90
45983;DHT22;31711;47.158;7.346;2022-12-29T10:01:14;10.00;99.90
45983;DHT22;31711;47.158;7.346;2022-12-29T10:03:48;10.10;99.90
45983;DHT22;31711;47.158;7.346;2022-12-29T10:06:20;10.20;99.90
45983;DHT22;31711;47.158;7.346;2022-12-29T10:17:34;10.20;99.90
45983;DHT22;31711;47.158;7.346;2022-12-29T10:25:16;10.10;99.90
45983;DHT22;31711;47.158;7.346;2022-12-29T10:27:48;10.10;99.90
45983;DHT22;31711;47.158;7.346;2022-12-29T10:30:15;10.10;99.90
45983;DHT22;31711;47.158;7.346;2022-12-29T10:32:57;10.00;99.90
45983;DHT22;31711;47.158;7.346;2022-12-29T10:35:26;10.00;99.90
45983;DHT22;31711;47.158;7.346;2022-12-29T10:43:28;10.00;99.90
45983;DHT22;31711;47.158;7.346;2022-12-29T10:45:59;9.90;99.90
45983;DHT22;31711;47.158;7.346;2022-12-29T10:48:34;9.80;99.90
45983;DHT22;31711;47.158;7.346;2022-12-29T10:51:04;9.70;99.90
45983;DHT22;31711;47.158;7.346;2022-12-29T10:53:40;9.70;99.90
45983;DHT22;31711;47.158;7.346;2022-12-29T10:56:37;9.70;99.90
45983;DHT22;31711;47.158;7.346;2022-12-29T10:59:14;9.70;99.90
45983;DHT22;31711;47.158;7.346;2022-12-29T11:01:50;9.80;99.90
45983;DHT22;31711;47.158;7.346;2022-12-29T11:06:43;10.00;99.90
45983;DHT22;31711;47.158;7.346;2022-12-29T11:09:23;10.10;99.90
45983;DHT22;31711;47.158;7.346;2022-12-29T11:11:50;10.00;99.90
45983;DHT22;31711;47.158;7.346;2022-12-29T11:14:30;10.00;99.90
45983;DHT22;31711;47.158;7.346;2022-12-29T11:17:02;10.00;99.90
45983;DHT22;31711;47.158;7.346;2022-12-29T11:19:31;10.00;99.90
45983;DHT22;31711;47.158;7.346;2022-12-29T11:22:23;10.00;99.90
45983;DHT22;31711;47.158;7.346;2022-12-29T11:24:50;10.10;99.90
45983;DHT22;31711;47.158;7.346;2022-12-29T11:27:20;10.30;99.90
45983;DHT22;31711;47.158;7.346;2022-12-29T11:29:49;10.40;99.90
45983;DHT22;31711;47.158;7.346;2022-12-29T11:32:25;10.50;99.90
45983;DHT22;31711;47.158;7.346;2022-12-29T11:34:51;10.50;99.90
45983;DHT22;31711;47.158;7.346;2022-12-29T11:37:23;10.50;99.90
45983;DHT22;31711;47.158;7.346;2022-12-29T11:42:40;10.40;99.90
45983;DHT22;31711;47.158;7.346;2022-12-29T11:45:16;10.30;99.90
45983;DHT22;31711;47.158;7.346;2022-12-29T11:47:48;10.20;99.90
45983;DHT22;31711;47.158;7.346;2022-12-29T11:50:24;10.30;99.90
45983;DHT22;31711;47.158;7.346;2022-12-29T11:53:01;10.30;99.90
45983;DHT22;31711;47.158;7.346;2022-12-29T11:55:29;10.30;99.90
45983;DHT22;31711;47.158;7.346;2022-12-29T11:57:58;10.40;99.90
45983;DHT22;31711;47.158;7.346;2022-12-29T12:00:26;10.40;99.90
45983;DHT22;31711;47.158;7.346;2022-12-29T12:03:02;10.40;99.90
45983;DHT22;31711;47.158;7.346;2022-12-29T12:10:55;10.30;99.90
45983;DHT22;31711;47.158;7.346;2022-12-29T12:13:31;10.30;99.90
45983;DHT22;31711;47.158;7.346;2022-12-29T12:16:09;10.20;99.90
45983;DHT22;31711;47.158;7.346;2022-12-29T12:18:47;10.20;99.90
45983;DHT22;31711;47.158;7.346;2022-12-29T12:29:18;10.10;99.90
45983;DHT22;31711;47.158;7.346;2022-12-29T12:31:59;10.20;99.90
45983;DHT22;31711;47.158;7.346;2022-12-29T12:34:36;10.20;99.90
45983;DHT22;31711;47.158;7.346;2022-12-29T12:47:41;10.10;99.90
45983;DHT22;31711;47.158;7.346;2022-12-29T12:50:14;10.20;99.90
45983;DHT22;31711;47.158;7.346;2022-12-29T12:56:21;10.20;99.90
45983;DHT22;31711;47.158;7.346;2022-12-29T13:15:55;10.50;99.90
45983;DHT22;31711;47.158;7.346;2022-12-29T13:28:35;10.60;99.90
45983;DHT22;31711;47.158;7.346;2022-12-29T13:36:18;10.50;99.90
45983;DHT22;31711;47.158;7.346;2022-12-29T13:38:48;10.50;99.90
45983;DHT22;31711;47.158;7.346;2022-12-29T13:41:43;10.50;99.90
45983;DHT22;31711;47.158;7.346;2022-12-29T13:44:16;10.40;99.90
45983;DHT22;31711;47.158;7.346;2022-12-29T13:46:45;10.30;99.90
45983;DHT22;31711;47.158;7.346;2022-12-29T13:49:20;10.20;99.90
45983;DHT22;31711;47.158;7.346;2022-12-29T13:59:57;10.20;99.90
45983;DHT22;31711;47.158;7.346;2022-12-29T14:05:26;10.20;99.90
45983;DHT22;31711;47.158;7.346;2022-12-29T14:08:05;10.10;99.90
45983;DHT22;31711;47.158;7.346;2022-12-29T14:10:49;10.10;99.90
45983;DHT22;31711;47.158;7.346;2022-12-29T14:13:21;10.10;99.90
45983;DHT22;31711;47.158;7.346;2022-12-29T14:15:54;10.00;99.90
45983;DHT22;31711;47.158;7.346;2022-12-29T14:18:25;10.00;99.90
45983;DHT22;31711;47.158;7.346;2022-12-29T14:28:27;9.80;99.90
45983;DHT22;31711;47.158;7.346;2022-12-29T14:30:56;9.80;99.90
45983;DHT22;31711;47.158;7.346;2022-12-29T14:33:23;9.80;99.90
45983;DHT22;31711;47.158;7.346;2022-12-29T14:35:52;9.70;99.90
45983;DHT22;31711;47.158;7.346;2022-12-29T14:38:22;9.70;99.90
45983;DHT22;31711;47.158;7.346;2022-12-29T14:40:49;9.60;99.90
45983;DHT22;31711;47.158;7.346;2022-12-29T14:43:25;9.60;99.90
45983;DHT22;31711;47.158;7.346;2022-12-29T14:45:55;9.60;99.90
45983;DHT22;31711;47.158;7.346;2022-12-29T14:48:38;9.60;99.90
45983;DHT22;31711;47.158;7.346;2022-12-29T14:51:27;9.50;99.90
45983;DHT22;31711;47.158;7.346;2022-12-29T14:53:55;9.60;99.90
45983;DHT22;31711;47.158;7.346;2022-12-29T14:56:26;9.60;99.90
45983;DHT22;31711;47.158;7.346;2022-12-29T14:58:55;9.60;99.90
45983;DHT22;31711;47.158;7.346;2022-12-29T15:01:26;9.60;99.90
45983;DHT22;31711;47.158;7.346;2022-12-29T15:03:57;9.60;99.90
45983;DHT22;31711;47.158;7.346;2022-12-29T15:06:25;9.60;99.90
45983;DHT22;31711;47.158;7.346;2022-12-29T15:09:12;9.60;99.90
45983;DHT22;31711;47.158;7.346;2022-12-29T15:12:00;9.60;99.90
45983;DHT22;31711;47.158;7.346;2022-12-29T15:17:31;9.60;99.90
45983;DHT22;31711;47.158;7.346;2022-12-29T15:20:00;9.50;99.90
45983;DHT22;31711;47.158;7.346;2022-12-29T15:22:26;9.50;99.90
45983;DHT22;31711;47.158;7.346;2022-12-29T15:24:54;9.50;99.90
45983;DHT22;31711;47.158;7.346;2022-12-29T15:27:25;9.40;99.90
45983;DHT22;31711;47.158;7.346;2022-12-29T15:30:00;9.30;99.90
45983;DHT22;31711;47.158;7.346;2022-12-29T15:32:29;9.30;99.90
45983;DHT22;31711;47.158;7.346;2022-12-29T15:34:57;9.20;99.90
45983;DHT22;31711;47.158;7.346;2022-12-29T15:37:32;9.30;99.90
45983;DHT22;31711;47.158;7.346;2022-12-29T15:39:59;9.20;99.90
45983;DHT22;31711;47.158;7.346;2022-12-29T15:45:17;9.10;99.90
45983;DHT22;31711;47.158;7.346;2022-12-29T15:47:45;9.10;99.90
45983;DHT22;31711;47.158;7.346;2022-12-29T15:50:23;9.00;99.90
45983;DHT22;31711;47.158;7.346;2022-12-29T15:52:50;9.00;99.90
45983;DHT22;31711;47.158;7.346;2022-12-29T15:57:47;8.90;99.90
45983;DHT22;31711;47.158;7.346;2022-12-29T16:00:34;8.90;99.90
45983;DHT22;31711;47.158;7.346;2022-12-29T16:03:04;9.00;99.90
45983;DHT22;31711;47.158;7.346;2022-12-29T16:05:54;9.00;99.90
45983;DHT22;31711;47.158;7.346;2022-12-29T16:08:39;9.00;99.90
45983;DHT22;31711;47.158;7.346;2022-12-29T16:12:21;9.00;99.90
45983;DHT22;31711;47.158;7.346;2022-12-29T16:17:27;8.80;99.90
45983;DHT22;31711;47.158;7.346;2022-12-29T16:19:57;8.80;99.90
45983;DHT22;31711;47.158;7.346;2022-12-29T16:24:50;8.80;99.90
45983;DHT22;31711;47.158;7.346;2022-12-29T16:27:19;8.80;99.90
45983;DHT22;31711;47.158;7.346;2022-12-29T16:29:47;8.80;99.90
45983;DHT22;31711;47.158;7.346;2022-12-29T16:32:29;8.80;99.90
45983;DHT22;31711;47.158;7.346;2022-12-29T16:37:40;8.90;99.90
45983;DHT22;31711;47.158;7.346;2022-12-29T16:42:48;8.70;99.90
45983;DHT22;31711;47.158;7.346;2022-12-29T16:48:10;8.60;99.90
45983;DHT22;31711;47.158;7.346;2022-12-29T16:50:43;8.70;99.90
45983;DHT22;31711;47.158;7.346;2022-12-29T16:53:25;8.70;99.90
45983;DHT22;31711;47.158;7.346;2022-12-29T16:55:53;8.70;99.90
45983;DHT22;31711;47.158;7.346;2022-12-29T16:58:24;8.80;99.90
45983;DHT22;31711;47.158;7.346;2022-12-29T17:00:56;8.70;99.90
45983;DHT22;31711;47.158;7.346;2022-12-29T17:03:38;8.60;99.90
45983;DHT22;31711;47.158;7.346;2022-12-29T17:06:04;8.60;99.90
45983;DHT22;31711;47.158;7.346;2022-12-29T17:08:40;8.70;99.90
45983;DHT22;31711;47.158;7.346;2022-12-29T17:14:04;8.50;99.90
45983;DHT22;31711;47.158;7.346;2022-12-29T17:16:30;8.40;99.90
45983;DHT22;31711;47.158;7.346;2022-12-29T17:18:57;8.40;99.90
45983;DHT22;31711;47.158;7.346;2022-12-29T17:21:23;8.40;99.90
45983;DHT22;31711;47.158;7.346;2022-12-29T17:23:48;8.30;99.90
45983;DHT22;31711;47.158;7.346;2022-12-29T17:26:14;8.40;99.90
45983;DHT22;31711;47.158;7.346;2022-12-29T17:28:40;8.30;99.90
45983;DHT22;31711;47.158;7.346;2022-12-29T17:31:09;8.30;99.90
45983;DHT22;31711;47.158;7.346;2022-12-29T17:33:37;8.40;99.90
45983;DHT22;31711;47.158;7.346;2022-12-29T17:36:04;8.40;99.90
45983;DHT22;31711;47.158;7.346;2022-12-29T17:38:33;8.50;99.90
45983;DHT22;31711;47.158;7.346;2022-12-29T17:41:00;8.50;99.90
45983;DHT22;31711;47.158;7.346;2022-12-29T17:43:26;8.50;99.90
45983;DHT22;31711;47.158;7.346;2022-12-29T17:45:54;8.60;99.90
45983;DHT22;31711;47.158;7.346;2022-12-29T17:48:21;8.50;99.90
45983;DHT22;31711;47.158;7.346;2022-12-29T17:50:49;8.40;99.90
45983;DHT22;31711;47.158;7.346;2022-12-29T17:53:24;8.40;99.90
45983;DHT22;31711;47.158;7.346;2022-12-29T17:55:51;8.40;99.90
45983;DHT22;31711;47.158;7.346;2022-12-29T17:58:22;8.40;99.90
45983;DHT22;31711;47.158;7.346;2022-12-29T18:00:51;8.40;99.90
45983;DHT22;31711;47.158;7.346;2022-12-29T18:03:24;8.40;99.90
45983;DHT22;31711;47.158;7.346;2022-12-29T18:05:51;8.40;99.90
45983;DHT22;31711;47.158;7.346;2022-12-29T18:08:17;8.50;99.90
45983;DHT22;31711;47.158;7.346;2022-12-29T18:10:43;8.50;99.90
45983;DHT22;31711;47.158;7.346;2022-12-29T18:13:22;8.50;99.90
45983;DHT22;31711;47.158;7.346;2022-12-29T18:15:50;8.50;99.90
45983;DHT22;31711;47.158;7.346;2022-12-29T18:18:22;8.50;99.90
45983;DHT22;31711;47.158;7.346;2022-12-29T18:20:51;8.50;99.90
45983;DHT22;31711;47.158;7.346;2022-12-29T18:23:26;8.50;99.90
45983;DHT22;31711;47.158;7.346;2022-12-29T18:26:04;8.50;99.90
45983;DHT22;31711;47.158;7.346;2022-12-29T18:28:32;8.40;99.90
45983;DHT22;31711;47.158;7.346;2022-12-29T18:30:59;8.30;99.90
45983;DHT22;31711;47.158;7.346;2022-12-29T18:33:27;8.30;99.90
45983;DHT22;31711;47.158;7.346;2022-12-29T18:35:59;8.30;99.90
45983;DHT22;31711;47.158;7.346;2022-12-29T18:38:26;8.30;99.90
45983;DHT22;31711;47.158;7.346;2022-12-29T18:40:53;8.40;99.90
45983;DHT22;31711;47.158;7.346;2022-12-29T18:43:19;8.30;99.90
45983;DHT22;31711;47.158;7.346;2022-12-29T18:45:46;8.30;99.90
45983;DHT22;31711;47.158;7.346;2022-12-29T18:48:16;8.40;99.90
45983;DHT22;31711;47.158;7.346;2022-12-29T18:50:43;8.40;99.90
45983;DHT22;31711;47.158;7.346;2022-12-29T18:53:18;8.30;99.90
45983;DHT22;31711;47.158;7.346;2022-12-29T18:55:44;8.40;99.90
45983;DHT22;31711;47.158;7.346;2022-12-29T18:58:11;8.30;99.90